sensor_id;sensor_type;location;lat;lon;timestamp;temperature;humidity
70170;DHT22;57543;45.442;9.212;2022-11-15T00:01:40;11.15;77.37
70170;DHT22;57543;45.442;9.212;2022-11-15T00:05:03;11.14;77.38
70170;DHT22;57543;45.442;9.212;2022-11-15T00:08:29;11.15;77.21
70170;DHT22;57543;45.442;9.212;2022-11-15T00:11:51;11.12;77.04
70170;DHT22;57543;45.442;9.212;2022-11-15T00:15:14;10.96;77.24
70170;DHT22;57543;45.442;9.212;2022-11-15T00:18:37;10.84;77.50
70170;DHT22;57543;45.442;9.212;2022-11-15T00:22:00;10.81;77.76
70170;DHT22;57543;45.442;9.212;2022-11-15T00:25:22;10.84;77.75
70170;DHT22;57543;45.442;9.212;2022-11-15T00:28:44;10.84;77.80
70170;DHT22;57543;45.442;9.212;2022-11-15T00:32:06;10.90;77.76
70170;DHT22;57543;45.442;9.212;2022-11-15T00:35:31;10.94;77.50
70170;DHT22;57543;45.442;9.212;2022-11-15T00:38:54;10.87;77.31
70170;DHT22;57543;45.442;9.212;2022-11-15T00:42:17;10.84;77.25
70170;DHT22;57543;45.442;9.212;2022-11-15T00:45:39;10.90;77.24
70170;DHT22;57543;45.442;9.212;2022-11-15T00:49:01;10.89;77.26
70170;DHT22;57543;45.442;9.212;2022-11-15T00:52:23;10.92;77.05
70170;DHT22;57543;45.442;9.212;2022-11-15T00:55:46;10.92;76.95
70170;DHT22;57543;45.442;9.212;2022-11-15T00:59:08;10.92;76.79
70170;DHT22;57543;45.442;9.212;2022-11-15T01:02:34;10.90;76.60
70170;DHT22;57543;45.442;9.212;2022-11-15T01:05:59;10.93;76.51
70170;DHT22;57543;45.442;9.212;2022-11-15T01:09:21;10.87;76.49
70170;DHT22;57543;45.442;9.212;2022-11-15T01:12:43;10.80;76.32
70170;DHT22;57543;45.442;9.212;2022-11-15T01:16:15;10.81;76.58
70170;DHT22;57543;45.442;9.212;2022-11-15T01:19:38;10.83;76.33
70170;DHT22;57543;45.442;9.212;2022-11-15T01:23:00;10.79;76.34
70170;DHT22;57543;45.442;9.212;2022-11-15T01:26:26;10.76;76.06
70170;DHT22;57543;45.442;9.212;2022-11-15T01:29:48;10.56;76.42
70170;DHT22;57543;45.442;9.212;2022-11-15T01:33:11;10.58;76.57
70170;DHT22;57543;45.442;9.212;2022-11-15T01:36:33;10.49;76.69
70170;DHT22;57543;45.442;9.212;2022-11-15T01:39:55;10.46;76.78
70170;DHT22;57543;45.442;9.212;2022-11-15T01:43:22;10.42;76.85
70170;DHT22;57543;45.442;9.212;2022-11-15T01:46:47;10.39;76.98
70170;DHT22;57543;45.442;9.212;2022-11-15T01:50:11;10.37;77.11
70170;DHT22;57543;45.442;9.212;2022-11-15T01:53:37;10.27;77.27
70170;DHT22;57543;45.442;9.212;2022-11-15T01:57:06;10.22;77.61
70170;DHT22;57543;45.442;9.212;2022-11-15T02:00:30;10.30;77.60
70170;DHT22;57543;45.442;9.212;2022-11-15T02:04:00;10.34;77.78
70170;DHT22;57543;45.442;9.212;2022-11-15T02:07:24;10.35;77.91
70170;DHT22;57543;45.442;9.212;2022-11-15T02:10:47;10.28;77.85
70170;DHT22;57543;45.442;9.212;2022-11-15T02:14:13;10.34;77.86
70170;DHT22;57543;45.442;9.212;2022-11-15T02:21:17;10.32;77.74
70170;DHT22;57543;45.442;9.212;2022-11-15T02:32:09;10.28;77.22
70170;DHT22;57543;45.442;9.212;2022-11-15T02:35:43;10.41;76.88
70170;DHT22;57543;45.442;9.212;2022-11-15T02:39:13;10.37;76.50
70170;DHT22;57543;45.442;9.212;2022-11-15T02:42:43;10.41;76.30
70170;DHT22;57543;45.442;9.212;2022-11-15T02:46:43;10.39;75.94
70170;DHT22;57543;45.442;9.212;2022-11-15T02:50:28;10.34;75.79
70170;DHT22;57543;45.442;9.212;2022-11-15T02:53:51;10.24;76.48
70170;DHT22;57543;45.442;9.212;2022-11-15T02:57:17;10.21;76.68
70170;DHT22;57543;45.442;9.212;2022-11-15T03:12:45;10.13;76.24
70170;DHT22;57543;45.442;9.212;2022-11-15T03:20:04;10.27;76.30
70170;DHT22;57543;45.442;9.212;2022-11-15T03:23:28;10.35;76.08
70170;DHT22;57543;45.442;9.212;2022-11-15T03:26:53;10.34;76.07
70170;DHT22;57543;45.442;9.212;2022-11-15T03:30:18;10.22;76.45
70170;DHT22;57543;45.442;9.212;2022-11-15T03:33:40;10.15;76.92
70170;DHT22;57543;45.442;9.212;2022-11-15T03:37:03;10.08;77.08
70170;DHT22;57543;45.442;9.212;2022-11-15T03:40:42;10.08;77.52
70170;DHT22;57543;45.442;9.212;2022-11-15T03:44:10;10.10;77.36
70170;DHT22;57543;45.442;9.212;2022-11-15T03:47:43;10.10;77.46
70170;DHT22;57543;45.442;9.212;2022-11-15T03:51:09;10.15;77.41
70170;DHT22;57543;45.442;9.212;2022-11-15T03:54:32;10.24;77.20
70170;DHT22;57543;45.442;9.212;2022-11-15T03:57:58;10.24;77.05
70170;DHT22;57543;45.442;9.212;2022-11-15T04:01:21;10.14;77.72
70170;DHT22;57543;45.442;9.212;2022-11-15T04:04:43;10.11;78.24
70170;DHT22;57543;45.442;9.212;2022-11-15T04:08:05;10.08;78.22
70170;DHT22;57543;45.442;9.212;2022-11-15T04:11:28;10.10;78.21
70170;DHT22;57543;45.442;9.212;2022-11-15T04:14:50;10.18;77.90
70170;DHT22;57543;45.442;9.212;2022-11-15T04:18:29;10.21;77.77
70170;DHT22;57543;45.442;9.212;2022-11-15T04:21:51;10.17;78.29
70170;DHT22;57543;45.442;9.212;2022-11-15T04:25:33;10.27;78.57
70170;DHT22;57543;45.442;9.212;2022-11-15T04:28:55;10.21;79.26
70170;DHT22;57543;45.442;9.212;2022-11-15T04:32:37;10.25;79.11
70170;DHT22;57543;45.442;9.212;2022-11-15T04:35:59;10.25;79.19
70170;DHT22;57543;45.442;9.212;2022-11-15T04:39:41;10.22;79.26
70170;DHT22;57543;45.442;9.212;2022-11-15T04:43:04;10.28;78.82
70170;DHT22;57543;45.442;9.212;2022-11-15T04:46:26;10.31;78.32
70170;DHT22;57543;45.442;9.212;2022-11-15T04:49:49;10.35;78.10
70170;DHT22;57543;45.442;9.212;2022-11-15T04:53:11;10.50;77.35
70170;DHT22;57543;45.442;9.212;2022-11-15T04:56:34;10.67;75.72
70170;DHT22;57543;45.442;9.212;2022-11-15T04:59:56;10.72;75.24
70170;DHT22;57543;45.442;9.212;2022-11-15T05:03:19;10.70;74.98
70170;DHT22;57543;45.442;9.212;2022-11-15T05:07:00;10.66;75.36
70170;DHT22;57543;45.442;9.212;2022-11-15T05:10:23;10.66;75.43
70170;DHT22;57543;45.442;9.212;2022-11-15T05:13:46;10.69;74.81
70170;DHT22;57543;45.442;9.212;2022-11-15T05:17:08;10.62;74.68
70170;DHT22;57543;45.442;9.212;2022-11-15T05:20:30;10.60;74.88
70170;DHT22;57543;45.442;9.212;2022-11-15T05:23:52;10.56;75.02
70170;DHT22;57543;45.442;9.212;2022-11-15T05:27:15;10.59;74.83
70170;DHT22;57543;45.442;9.212;2022-11-15T05:30:37;10.53;75.20
70170;DHT22;57543;45.442;9.212;2022-11-15T05:34:04;10.52;75.54
70170;DHT22;57543;45.442;9.212;2022-11-15T05:37:28;10.28;75.95
70170;DHT22;57543;45.442;9.212;2022-11-15T05:40:51;10.28;76.67
70170;DHT22;57543;45.442;9.212;2022-11-15T05:44:17;10.32;76.54
70170;DHT22;57543;45.442;9.212;2022-11-15T05:47:41;10.28;76.91
70170;DHT22;57543;45.442;9.212;2022-11-15T05:51:04;10.25;76.92
70170;DHT22;57543;45.442;9.212;2022-11-15T05:54:28;10.21;77.08
70170;DHT22;57543;45.442;9.212;2022-11-15T05:57:51;10.24;77.08
70170;DHT22;57543;45.442;9.212;2022-11-15T06:01:13;10.11;77.42
70170;DHT22;57543;45.442;9.212;2022-11-15T06:04:36;10.11;77.58
70170;DHT22;57543;45.442;9.212;2022-11-15T06:07:58;10.15;77.58
70170;DHT22;57543;45.442;9.212;2022-11-15T06:11:20;10.11;77.72
70170;DHT22;57543;45.442;9.212;2022-11-15T06:14:43;10.18;77.68
70170;DHT22;57543;45.442;9.212;2022-11-15T06:18:05;10.20;77.43
70170;DHT22;57543;45.442;9.212;2022-11-15T06:21:27;10.15;77.81
70170;DHT22;57543;45.442;9.212;2022-11-15T06:24:50;10.10;77.81
70170;DHT22;57543;45.442;9.212;2022-11-15T06:28:13;9.98;78.36
70170;DHT22;57543;45.442;9.212;2022-11-15T06:31:35;10.03;78.66
70170;DHT22;57543;45.442;9.212;2022-11-15T06:34:58;10.04;78.15
70170;DHT22;57543;45.442;9.212;2022-11-15T06:38:20;10.05;77.85
70170;DHT22;57543;45.442;9.212;2022-11-15T06:41:43;10.10;77.63
70170;DHT22;57543;45.442;9.212;2022-11-15T06:45:05;10.00;77.94
70170;DHT22;57543;45.442;9.212;2022-11-15T06:48:29;9.98;78.43
70170;DHT22;57543;45.442;9.212;2022-11-15T06:51:51;9.89;79.08
70170;DHT22;57543;45.442;9.212;2022-11-15T06:55:14;9.98;79.15
70170;DHT22;57543;45.442;9.212;2022-11-15T06:58:36;9.96;78.80
70170;DHT22;57543;45.442;9.212;2022-11-15T07:01:58;9.94;79.53
70170;DHT22;57543;45.442;9.212;2022-11-15T07:05:20;9.89;79.74
70170;DHT22;57543;45.442;9.212;2022-11-15T07:08:42;9.94;79.72
70170;DHT22;57543;45.442;9.212;2022-11-15T07:12:05;9.90;80.16
70170;DHT22;57543;45.442;9.212;2022-11-15T07:15:27;9.94;80.69
70170;DHT22;57543;45.442;9.212;2022-11-15T07:18:50;9.91;81.22
70170;DHT22;57543;45.442;9.212;2022-11-15T07:22:15;9.86;81.26
70170;DHT22;57543;45.442;9.212;2022-11-15T07:25:37;9.96;80.96
70170;DHT22;57543;45.442;9.212;2022-11-15T07:29:00;10.05;80.88
70170;DHT22;57543;45.442;9.212;2022-11-15T07:32:22;10.08;80.56
70170;DHT22;57543;45.442;9.212;2022-11-15T07:35:44;10.10;80.09
70170;DHT22;57543;45.442;9.212;2022-11-15T07:39:08;10.13;80.31
70170;DHT22;57543;45.442;9.212;2022-11-15T07:42:31;10.13;80.49
70170;DHT22;57543;45.442;9.212;2022-11-15T07:46:12;10.11;81.11
70170;DHT22;57543;45.442;9.212;2022-11-15T07:49:35;10.20;80.82
70170;DHT22;57543;45.442;9.212;2022-11-15T07:52:59;10.31;79.94
70170;DHT22;57543;45.442;9.212;2022-11-15T07:56:23;10.30;80.34
70170;DHT22;57543;45.442;9.212;2022-11-15T07:59:45;10.41;80.28
70170;DHT22;57543;45.442;9.212;2022-11-15T08:03:09;10.44;79.76
70170;DHT22;57543;45.442;9.212;2022-11-15T08:06:32;10.42;79.99
70170;DHT22;57543;45.442;9.212;2022-11-15T08:09:54;10.42;80.49
70170;DHT22;57543;45.442;9.212;2022-11-15T08:13:17;10.42;81.19
70170;DHT22;57543;45.442;9.212;2022-11-15T08:16:39;10.42;81.38
70170;DHT22;57543;45.442;9.212;2022-11-15T08:20:02;10.50;81.49
70170;DHT22;57543;45.442;9.212;2022-11-15T08:23:25;10.58;80.99
70170;DHT22;57543;45.442;9.212;2022-11-15T08:26:47;10.55;80.85
70170;DHT22;57543;45.442;9.212;2022-11-15T08:30:09;10.59;80.86
70170;DHT22;57543;45.442;9.212;2022-11-15T08:33:33;10.70;80.71
70170;DHT22;57543;45.442;9.212;2022-11-15T08:36:55;10.69;80.64
70170;DHT22;57543;45.442;9.212;2022-11-15T08:40:17;10.76;80.39
70170;DHT22;57543;45.442;9.212;2022-11-15T08:43:40;10.76;80.43
70170;DHT22;57543;45.442;9.212;2022-11-15T08:47:03;10.76;80.80
70170;DHT22;57543;45.442;9.212;2022-11-15T08:50:25;10.70;80.90
70170;DHT22;57543;45.442;9.212;2022-11-15T08:53:47;10.81;80.47
70170;DHT22;57543;45.442;9.212;2022-11-15T08:57:13;10.84;80.42
70170;DHT22;57543;45.442;9.212;2022-11-15T09:00:35;10.76;80.37
70170;DHT22;57543;45.442;9.212;2022-11-15T09:03:57;10.81;80.62
70170;DHT22;57543;45.442;9.212;2022-11-15T09:07:20;10.79;80.19
70170;DHT22;57543;45.442;9.212;2022-11-15T09:10:42;10.81;80.53
70170;DHT22;57543;45.442;9.212;2022-11-15T09:14:04;10.79;80.78
70170;DHT22;57543;45.442;9.212;2022-11-15T09:17:27;10.77;80.96
70170;DHT22;57543;45.442;9.212;2022-11-15T09:20:49;10.75;81.40
70170;DHT22;57543;45.442;9.212;2022-11-15T09:24:12;10.75;81.78
70170;DHT22;57543;45.442;9.212;2022-11-15T09:27:34;10.62;83.00
70170;DHT22;57543;45.442;9.212;2022-11-15T09:31:03;10.66;83.17
70170;DHT22;57543;45.442;9.212;2022-11-15T09:34:25;10.73;82.92
70170;DHT22;57543;45.442;9.212;2022-11-15T09:37:48;10.79;82.92
70170;DHT22;57543;45.442;9.212;2022-11-15T09:44:51;10.86;82.37
70170;DHT22;57543;45.442;9.212;2022-11-15T09:51:49;10.87;83.52
70170;DHT22;57543;45.442;9.212;2022-11-15T09:54:53;10.86;83.73
70170;DHT22;57543;45.442;9.212;2022-11-15T09:58:15;10.89;83.80
70170;DHT22;57543;45.442;9.212;2022-11-15T10:04:32;11.00;83.63
70170;DHT22;57543;45.442;9.212;2022-11-15T10:11:10;11.03;84.08
70170;DHT22;57543;45.442;9.212;2022-11-15T10:14:18;11.10;83.71
70170;DHT22;57543;45.442;9.212;2022-11-15T10:20:45;11.17;82.91
70170;DHT22;57543;45.442;9.212;2022-11-15T10:23:50;11.24;82.54
70170;DHT22;57543;45.442;9.212;2022-11-15T10:26:55;11.22;82.62
70170;DHT22;57543;45.442;9.212;2022-11-15T10:29:59;11.21;82.80
70170;DHT22;57543;45.442;9.212;2022-11-15T10:33:25;11.24;83.02
70170;DHT22;57543;45.442;9.212;2022-11-15T10:36:29;11.20;83.61
70170;DHT22;57543;45.442;9.212;2022-11-15T10:39:33;11.18;84.14
70170;DHT22;57543;45.442;9.212;2022-11-15T10:42:39;11.21;84.21
70170;DHT22;57543;45.442;9.212;2022-11-15T10:45:45;11.20;84.25
70170;DHT22;57543;45.442;9.212;2022-11-15T10:48:49;11.22;83.92
70170;DHT22;57543;45.442;9.212;2022-11-15T10:51:55;11.21;83.72
70170;DHT22;57543;45.442;9.212;2022-11-15T10:55:03;11.18;84.02
70170;DHT22;57543;45.442;9.212;2022-11-15T10:58:23;11.24;84.07
70170;DHT22;57543;45.442;9.212;2022-11-15T11:01:30;11.28;83.69
70170;DHT22;57543;45.442;9.212;2022-11-15T11:04:50;11.29;83.09
70170;DHT22;57543;45.442;9.212;2022-11-15T11:11:14;11.38;82.12
70170;DHT22;57543;45.442;9.212;2022-11-15T11:14:29;11.42;81.66
70170;DHT22;57543;45.442;9.212;2022-11-15T11:21:13;11.45;81.44
70170;DHT22;57543;45.442;9.212;2022-11-15T11:24:31;11.42;81.44
70170;DHT22;57543;45.442;9.212;2022-11-15T11:27:43;11.40;81.53
70170;DHT22;57543;45.442;9.212;2022-11-15T11:31:13;11.40;81.64
70170;DHT22;57543;45.442;9.212;2022-11-15T11:37:52;11.43;81.64
70170;DHT22;57543;45.442;9.212;2022-11-15T11:41:06;11.46;81.89
70170;DHT22;57543;45.442;9.212;2022-11-15T11:44:28;11.46;81.94
70170;DHT22;57543;45.442;9.212;2022-11-15T11:47:48;11.51;81.82
70170;DHT22;57543;45.442;9.212;2022-11-15T11:51:01;11.55;81.84
70170;DHT22;57543;45.442;9.212;2022-11-15T11:54:27;11.54;81.98
70170;DHT22;57543;45.442;9.212;2022-11-15T12:00:55;11.59;82.14
70170;DHT22;57543;45.442;9.212;2022-11-15T12:04:09;11.54;82.14
70170;DHT22;57543;45.442;9.212;2022-11-15T12:07:17;11.55;81.63
70170;DHT22;57543;45.442;9.212;2022-11-15T12:10:24;11.46;82.08
70170;DHT22;57543;45.442;9.212;2022-11-15T12:13:30;11.46;82.26
70170;DHT22;57543;45.442;9.212;2022-11-15T12:16:39;11.52;82.34
70170;DHT22;57543;45.442;9.212;2022-11-15T12:19:45;11.54;82.26
70170;DHT22;57543;45.442;9.212;2022-11-15T12:23:08;11.52;81.96
70170;DHT22;57543;45.442;9.212;2022-11-15T12:26:26;11.51;82.21
70170;DHT22;57543;45.442;9.212;2022-11-15T12:29:37;11.55;81.95
70170;DHT22;57543;45.442;9.212;2022-11-15T12:32:55;11.55;81.77
70170;DHT22;57543;45.442;9.212;2022-11-15T12:36:03;11.56;81.59
70170;DHT22;57543;45.442;9.212;2022-11-15T12:39:12;11.59;81.62
70170;DHT22;57543;45.442;9.212;2022-11-15T12:54:57;11.70;80.88
70170;DHT22;57543;45.442;9.212;2022-11-15T12:58:26;11.61;81.67
70170;DHT22;57543;45.442;9.212;2022-11-15T13:04:36;11.61;81.92
70170;DHT22;57543;45.442;9.212;2022-11-15T13:10:44;11.58;81.64
70170;DHT22;57543;45.442;9.212;2022-11-15T13:13:48;11.61;81.66
70170;DHT22;57543;45.442;9.212;2022-11-15T13:16:58;11.55;81.70
70170;DHT22;57543;45.442;9.212;2022-11-15T13:20:11;11.54;81.87
70170;DHT22;57543;45.442;9.212;2022-11-15T13:23:21;11.59;81.87
70170;DHT22;57543;45.442;9.212;2022-11-15T13:26:26;11.59;81.91
70170;DHT22;57543;45.442;9.212;2022-11-15T13:29:29;11.62;82.01
70170;DHT22;57543;45.442;9.212;2022-11-15T13:32:33;11.67;81.71
70170;DHT22;57543;45.442;9.212;2022-11-15T13:35:40;11.62;81.73
70170;DHT22;57543;45.442;9.212;2022-11-15T13:38:44;11.69;81.73
70170;DHT22;57543;45.442;9.212;2022-11-15T13:41:50;11.65;81.92
70170;DHT22;57543;45.442;9.212;2022-11-15T13:48:03;11.67;81.73
70170;DHT22;57543;45.442;9.212;2022-11-15T13:51:14;11.66;81.58
70170;DHT22;57543;45.442;9.212;2022-11-15T13:54:41;11.65;81.66
70170;DHT22;57543;45.442;9.212;2022-11-15T13:57:58;11.74;81.29
70170;DHT22;57543;45.442;9.212;2022-11-15T14:01:04;11.63;81.63
70170;DHT22;57543;45.442;9.212;2022-11-15T14:04:12;11.65;81.72
70170;DHT22;57543;45.442;9.212;2022-11-15T14:07:20;11.63;81.65
70170;DHT22;57543;45.442;9.212;2022-11-15T14:10:36;11.61;81.88
70170;DHT22;57543;45.442;9.212;2022-11-15T14:13:40;11.61;81.67
70170;DHT22;57543;45.442;9.212;2022-11-15T14:16:46;11.63;81.59
70170;DHT22;57543;45.442;9.212;2022-11-15T14:19:50;11.63;81.40
70170;DHT22;57543;45.442;9.212;2022-11-15T14:23:02;11.66;81.24
70170;DHT22;57543;45.442;9.212;2022-11-15T14:26:28;11.61;81.28
70170;DHT22;57543;45.442;9.212;2022-11-15T14:29:33;11.61;81.23
70170;DHT22;57543;45.442;9.212;2022-11-15T14:32:47;11.62;81.12
70170;DHT22;57543;45.442;9.212;2022-11-15T14:35:52;11.61;81.19
70170;DHT22;57543;45.442;9.212;2022-11-15T14:38:56;11.61;81.36
70170;DHT22;57543;45.442;9.212;2022-11-15T14:42:00;11.58;81.56
70170;DHT22;57543;45.442;9.212;2022-11-15T14:45:12;11.59;81.51
70170;DHT22;57543;45.442;9.212;2022-11-15T14:48:17;11.54;81.85
70170;DHT22;57543;45.442;9.212;2022-11-15T14:51:20;11.58;81.82
70170;DHT22;57543;45.442;9.212;2022-11-15T14:54:24;11.56;81.90
70170;DHT22;57543;45.442;9.212;2022-11-15T14:57:29;11.51;82.06
70170;DHT22;57543;45.442;9.212;2022-11-15T15:00:33;11.54;82.20
70170;DHT22;57543;45.442;9.212;2022-11-15T15:03:36;11.49;82.09
70170;DHT22;57543;45.442;9.212;2022-11-15T15:06:40;11.45;82.22
70170;DHT22;57543;45.442;9.212;2022-11-15T15:09:44;11.45;82.22
70170;DHT22;57543;45.442;9.212;2022-11-15T15:12:48;11.46;82.09
70170;DHT22;57543;45.442;9.212;2022-11-15T15:15:52;11.48;82.14
70170;DHT22;57543;45.442;9.212;2022-11-15T15:18:56;11.49;82.07
70170;DHT22;57543;45.442;9.212;2022-11-15T15:21:59;11.48;82.14
70170;DHT22;57543;45.442;9.212;2022-11-15T15:25:18;11.46;82.06
70170;DHT22;57543;45.442;9.212;2022-11-15T15:28:23;11.45;82.05
70170;DHT22;57543;45.442;9.212;2022-11-15T15:31:26;11.48;81.59
70170;DHT22;57543;45.442;9.212;2022-11-15T15:34:31;11.43;81.79
70170;DHT22;57543;45.442;9.212;2022-11-15T15:37:34;11.45;81.58
70170;DHT22;57543;45.442;9.212;2022-11-15T15:40:38;11.42;81.65
70170;DHT22;57543;45.442;9.212;2022-11-15T15:43:43;11.39;81.87
70170;DHT22;57543;45.442;9.212;2022-11-15T15:46:47;11.42;81.92
70170;DHT22;57543;45.442;9.212;2022-11-15T15:49:51;11.36;82.09
70170;DHT22;57543;45.442;9.212;2022-11-15T15:52:57;11.39;82.22
70170;DHT22;57543;45.442;9.212;2022-11-15T15:56:01;11.40;82.20
70170;DHT22;57543;45.442;9.212;2022-11-15T15:59:04;11.39;82.34
70170;DHT22;57543;45.442;9.212;2022-11-15T16:02:14;11.36;82.37
70170;DHT22;57543;45.442;9.212;2022-11-15T16:05:18;11.36;82.54
70170;DHT22;57543;45.442;9.212;2022-11-15T16:08:23;11.36;82.58
70170;DHT22;57543;45.442;9.212;2022-11-15T16:11:27;11.31;82.82
70170;DHT22;57543;45.442;9.212;2022-11-15T16:14:31;11.22;83.39
70170;DHT22;57543;45.442;9.212;2022-11-15T16:17:39;11.21;83.89
70170;DHT22;57543;45.442;9.212;2022-11-15T16:20:47;11.22;83.73
70170;DHT22;57543;45.442;9.212;2022-11-15T16:23:53;11.14;84.35
70170;DHT22;57543;45.442;9.212;2022-11-15T16:26:56;11.18;84.22
70170;DHT22;57543;45.442;9.212;2022-11-15T16:30:00;11.27;82.92
70170;DHT22;57543;45.442;9.212;2022-11-15T16:33:04;11.17;83.24
70170;DHT22;57543;45.442;9.212;2022-11-15T16:36:25;11.14;83.41
70170;DHT22;57543;45.442;9.212;2022-11-15T16:39:29;11.12;83.15
70170;DHT22;57543;45.442;9.212;2022-11-15T16:42:33;11.14;83.07
70170;DHT22;57543;45.442;9.212;2022-11-15T16:45:36;11.17;83.18
70170;DHT22;57543;45.442;9.212;2022-11-15T16:48:40;11.15;83.29
70170;DHT22;57543;45.442;9.212;2022-11-15T16:51:45;11.15;83.39
70170;DHT22;57543;45.442;9.212;2022-11-15T16:54:49;11.17;83.38
70170;DHT22;57543;45.442;9.212;2022-11-15T16:57:53;11.20;83.29
70170;DHT22;57543;45.442;9.212;2022-11-15T17:00:57;11.24;83.08
70170;DHT22;57543;45.442;9.212;2022-11-15T17:04:02;11.21;82.94
70170;DHT22;57543;45.442;9.212;2022-11-15T17:07:14;11.20;82.99
70170;DHT22;57543;45.442;9.212;2022-11-15T17:10:20;11.20;83.07
70170;DHT22;57543;45.442;9.212;2022-11-15T17:13:24;11.20;83.19
70170;DHT22;57543;45.442;9.212;2022-11-15T17:16:27;11.20;83.30
70170;DHT22;57543;45.442;9.212;2022-11-15T17:19:31;11.21;83.30
70170;DHT22;57543;45.442;9.212;2022-11-15T17:22:36;11.27;83.13
70170;DHT22;57543;45.442;9.212;2022-11-15T17:25:40;11.24;83.33
70170;DHT22;57543;45.442;9.212;2022-11-15T17:28:44;11.25;83.43
70170;DHT22;57543;45.442;9.212;2022-11-15T17:31:48;11.21;83.61
70170;DHT22;57543;45.442;9.212;2022-11-15T17:34:51;11.20;83.72
70170;DHT22;57543;45.442;9.212;2022-11-15T17:37:56;11.22;83.59
70170;DHT22;57543;45.442;9.212;2022-11-15T17:41:00;11.24;83.52
70170;DHT22;57543;45.442;9.212;2022-11-15T17:44:05;11.24;83.58
70170;DHT22;57543;45.442;9.212;2022-11-15T17:47:08;11.22;83.57
70170;DHT22;57543;45.442;9.212;2022-11-15T17:50:12;11.22;83.60
70170;DHT22;57543;45.442;9.212;2022-11-15T17:53:16;11.25;83.47
70170;DHT22;57543;45.442;9.212;2022-11-15T17:56:24;11.25;83.65
70170;DHT22;57543;45.442;9.212;2022-11-15T17:59:28;11.22;83.90
70170;DHT22;57543;45.442;9.212;2022-11-15T18:02:32;11.21;83.99
70170;DHT22;57543;45.442;9.212;2022-11-15T18:05:35;11.22;84.12
70170;DHT22;57543;45.442;9.212;2022-11-15T18:08:41;11.27;84.02
70170;DHT22;57543;45.442;9.212;2022-11-15T18:11:45;11.25;83.93
70170;DHT22;57543;45.442;9.212;2022-11-15T18:14:53;11.24;84.09
70170;DHT22;57543;45.442;9.212;2022-11-15T18:17:57;11.27;84.09
70170;DHT22;57543;45.442;9.212;2022-11-15T18:21:11;11.24;84.21
70170;DHT22;57543;45.442;9.212;2022-11-15T18:24:14;11.25;84.08
70170;DHT22;57543;45.442;9.212;2022-11-15T18:27:18;11.27;84.06
70170;DHT22;57543;45.442;9.212;2022-11-15T18:30:21;11.27;84.19
70170;DHT22;57543;45.442;9.212;2022-11-15T18:33:26;11.27;84.15
70170;DHT22;57543;45.442;9.212;2022-11-15T18:36:30;11.27;84.24
70170;DHT22;57543;45.442;9.212;2022-11-15T18:39:33;11.24;84.23
70170;DHT22;57543;45.442;9.212;2022-11-15T18:42:37;11.27;84.14
70170;DHT22;57543;45.442;9.212;2022-11-15T18:45:41;11.25;84.24
70170;DHT22;57543;45.442;9.212;2022-11-15T18:48:45;11.25;84.41
70170;DHT22;57543;45.442;9.212;2022-11-15T18:51:49;11.18;84.53
70170;DHT22;57543;45.442;9.212;2022-11-15T18:54:53;11.21;84.31
70170;DHT22;57543;45.442;9.212;2022-11-15T18:57:57;11.18;84.56
70170;DHT22;57543;45.442;9.212;2022-11-15T19:01:22;11.17;84.61
70170;DHT22;57543;45.442;9.212;2022-11-15T19:04:26;11.20;84.51
70170;DHT22;57543;45.442;9.212;2022-11-15T19:07:30;11.17;84.63
70170;DHT22;57543;45.442;9.212;2022-11-15T19:10:33;11.18;84.73
70170;DHT22;57543;45.442;9.212;2022-11-15T19:13:37;11.21;84.64
70170;DHT22;57543;45.442;9.212;2022-11-15T19:16:43;11.21;84.61
70170;DHT22;57543;45.442;9.212;2022-11-15T19:19:47;11.15;84.81
70170;DHT22;57543;45.442;9.212;2022-11-15T19:22:51;11.15;84.84
70170;DHT22;57543;45.442;9.212;2022-11-15T19:25:56;11.17;84.68
70170;DHT22;57543;45.442;9.212;2022-11-15T19:29:01;11.18;84.77
70170;DHT22;57543;45.442;9.212;2022-11-15T19:32:05;11.20;84.76
70170;DHT22;57543;45.442;9.212;2022-11-15T19:35:08;11.21;84.78
70170;DHT22;57543;45.442;9.212;2022-11-15T19:38:12;11.24;84.80
70170;DHT22;57543;45.442;9.212;2022-11-15T19:41:19;11.21;84.91
70170;DHT22;57543;45.442;9.212;2022-11-15T19:44:24;11.24;85.06
70170;DHT22;57543;45.442;9.212;2022-11-15T19:47:29;11.22;85.05
70170;DHT22;57543;45.442;9.212;2022-11-15T19:50:36;11.24;85.05
70170;DHT22;57543;45.442;9.212;2022-11-15T19:53:40;11.24;84.99
70170;DHT22;57543;45.442;9.212;2022-11-15T19:56:44;11.22;85.00
70170;DHT22;57543;45.442;9.212;2022-11-15T19:59:47;11.24;85.10
70170;DHT22;57543;45.442;9.212;2022-11-15T20:02:51;11.24;85.18
70170;DHT22;57543;45.442;9.212;2022-11-15T20:06:07;11.22;85.02
70170;DHT22;57543;45.442;9.212;2022-11-15T20:09:13;11.28;85.18
70170;DHT22;57543;45.442;9.212;2022-11-15T20:12:17;11.29;85.09
70170;DHT22;57543;45.442;9.212;2022-11-15T20:15:20;11.27;85.16
70170;DHT22;57543;45.442;9.212;2022-11-15T20:18:25;11.31;84.93
70170;DHT22;57543;45.442;9.212;2022-11-15T20:21:30;11.29;84.72
70170;DHT22;57543;45.442;9.212;2022-11-15T20:24:34;11.25;84.88
70170;DHT22;57543;45.442;9.212;2022-11-15T20:27:37;11.27;84.91
70170;DHT22;57543;45.442;9.212;2022-11-15T20:30:43;11.28;84.78
70170;DHT22;57543;45.442;9.212;2022-11-15T20:33:47;11.27;84.81
70170;DHT22;57543;45.442;9.212;2022-11-15T20:36:54;11.25;84.89
70170;DHT22;57543;45.442;9.212;2022-11-15T20:39:58;11.28;84.77
70170;DHT22;57543;45.442;9.212;2022-11-15T20:43:02;11.27;84.77
70170;DHT22;57543;45.442;9.212;2022-11-15T20:46:05;11.25;84.82
70170;DHT22;57543;45.442;9.212;2022-11-15T20:49:09;11.24;84.89
70170;DHT22;57543;45.442;9.212;2022-11-15T20:52:13;11.28;84.92
70170;DHT22;57543;45.442;9.212;2022-11-15T20:55:18;11.20;85.13
70170;DHT22;57543;45.442;9.212;2022-11-15T20:58:22;11.15;85.31
70170;DHT22;57543;45.442;9.212;2022-11-15T21:01:30;11.20;85.18
70170;DHT22;57543;45.442;9.212;2022-11-15T21:04:34;11.22;85.16
70170;DHT22;57543;45.442;9.212;2022-11-15T21:07:38;11.25;85.05
70170;DHT22;57543;45.442;9.212;2022-11-15T21:10:42;11.25;84.98
70170;DHT22;57543;45.442;9.212;2022-11-15T21:14:04;11.27;84.81
70170;DHT22;57543;45.442;9.212;2022-11-15T21:17:08;11.28;84.73
70170;DHT22;57543;45.442;9.212;2022-11-15T21:20:12;11.25;84.81
70170;DHT22;57543;45.442;9.212;2022-11-15T21:23:17;11.25;84.88
70170;DHT22;57543;45.442;9.212;2022-11-15T21:26:21;11.29;84.86
70170;DHT22;57543;45.442;9.212;2022-11-15T21:29:25;11.31;84.79
70170;DHT22;57543;45.442;9.212;2022-11-15T21:32:29;11.28;84.75
70170;DHT22;57543;45.442;9.212;2022-11-15T21:35:32;11.29;84.94
70170;DHT22;57543;45.442;9.212;2022-11-15T21:38:36;11.27;84.95
70170;DHT22;57543;45.442;9.212;2022-11-15T21:41:40;11.31;84.79
70170;DHT22;57543;45.442;9.212;2022-11-15T21:44:44;11.31;84.62
70170;DHT22;57543;45.442;9.212;2022-11-15T21:47:48;11.29;84.64
70170;DHT22;57543;45.442;9.212;2022-11-15T21:51:00;11.31;84.60